Time,TemperatureF,DewpointF,PressureIn,WindDirection,WindDirectionDegrees,WindSpeedMPH,WindSpeedGustMPH,Humidity,HourlyPrecipIn,Conditions,Clouds,dailyrainin,SoftwareType,DateUTC
2013-03-23 00:02:00,35.9,28.1,30.05,WSW,250,0.0,0.0,73,0.00,,,0.00,Wunderground v.1.15,2013-03-23 05:02:00,
2013-03-23 00:12:00,36.0,27.8,30.05,WSW,250,0.0,0.0,72,0.00,,,0.00,Wunderground v.1.15,2013-03-23 05:12:00,
2013-03-23 00:22:00,35.9,27.7,30.05,WSW,250,0.0,0.0,72,0.00,,,0.00,Wunderground v.1.15,2013-03-23 05:22:00,
2013-03-23 00:32:00,35.8,27.7,30.05,WSW,250,0.0,0.0,72,0.00,,,0.00,Wunderground v.1.15,2013-03-23 05:32:00,
2013-03-23 00:42:00,35.9,27.7,30.05,WSW,250,0.0,0.0,72,0.00,,,0.00,Wunderground v.1.15,2013-03-23 05:42:00,
2013-03-23 00:52:00,36.1,27.3,30.05,WSW,250,0.0,0.0,70,0.00,,,0.00,Wunderground v.1.15,2013-03-23 05:52:00,
2013-03-23 01:02:00,36.3,27.4,30.06,WSW,250,1.0,1.0,70,0.00,,,0.00,Wunderground v.1.15,2013-03-23 06:02:00,
2013-03-23 01:12:00,36.2,27.4,30.06,WSW,251,1.0,2.0,70,0.00,,,0.00,Wunderground v.1.15,2013-03-23 06:12:00,
2013-03-23 01:22:00,36.2,27.0,30.06,NE,48,3.0,3.0,69,0.00,,,0.00,Wunderground v.1.15,2013-03-23 06:22:00,
2013-03-23 01:32:00,36.2,27.0,30.06,NE,48,3.0,3.0,69,0.00,,,0.00,Wunderground v.1.15,2013-03-23 06:32:00,
2013-03-23 01:42:00,36.1,27.3,30.06,NE,56,2.0,2.0,70,0.00,,,0.00,Wunderground v.1.15,2013-03-23 06:42:00,
2013-03-23 01:52:00,35.9,27.4,30.06,NE,51,3.0,3.0,71,0.00,,,0.00,Wunderground v.1.15,2013-03-23 06:52:00,
2013-03-23 02:02:00,35.7,27.6,30.06,NE,51,2.0,4.0,72,0.00,,,0.00,Wunderground v.1.15,2013-03-23 07:02:00,
2013-03-23 02:12:00,35.5,27.4,30.05,NE,48,3.0,3.0,72,0.00,,,0.00,Wunderground v.1.15,2013-03-23 07:12:00,
2013-03-23 02:22:00,35.4,27.3,30.05,NE,47,3.0,3.0,72,0.00,,,0.00,Wunderground v.1.15,2013-03-23 07:22:00,
2013-03-23 02:32:00,35.2,27.4,30.05,NE,45,2.0,2.0,73,0.00,,,0.00,Wunderground v.1.15,2013-03-23 07:32:00,
2013-03-23 02:42:00,35.1,27.3,30.05,NE,43,2.0,5.0,73,0.00,,,0.00,Wunderground v.1.15,2013-03-23 07:42:00,
2013-03-23 02:52:00,35.1,27.3,30.05,NE,46,2.0,3.0,73,0.00,,,0.00,Wunderground v.1.15,2013-03-23 07:52:00,
2013-03-23 03:02:00,35.0,27.2,30.05,NE,47,3.0,3.0,73,0.00,,,0.00,Wunderground v.1.15,2013-03-23 08:02:00,
2013-03-23 03:12:00,35.0,27.2,30.05,NE,34,4.0,5.0,73,0.00,,,0.00,Wunderground v.1.15,2013-03-23 08:12:00,
2013-03-23 03:22:00,34.8,27.0,30.04,NE,49,5.0,5.0,73,0.00,,,0.00,Wunderground v.1.15,2013-03-23 08:22:00,
2013-03-23 03:32:00,34.7,26.9,30.04,NE,36,5.0,5.0,73,0.00,,,0.00,Wunderground v.1.15,2013-03-23 08:32:00,
2013-03-23 03:42:00,34.5,27.1,30.04,NNE,24,4.0,5.0,74,0.00,,,0.00,Wunderground v.1.15,2013-03-23 08:42:00,
2013-03-23 03:52:00,34.4,27.0,30.04,NE,54,4.0,4.0,74,0.00,,,0.00,Wunderground v.1.15,2013-03-23 08:52:00,
2013-03-23 04:02:00,34.4,27.0,30.03,NE,36,5.0,7.0,74,0.00,,,0.00,Wunderground v.1.15,2013-03-23 09:02:00,
2013-03-23 04:12:00,34.3,27.2,30.03,NNE,20,5.0,6.0,75,0.00,,,0.00,Wunderground v.1.15,2013-03-23 09:12:00,
2013-03-23 04:22:00,34.2,27.1,30.04,NE,53,6.0,8.0,75,0.00,,,0.00,Wunderground v.1.15,2013-03-23 09:22:00,
2013-03-23 04:32:00,34.2,26.8,30.04,NNE,32,5.0,7.0,74,0.00,,,0.00,Wunderground v.1.15,2013-03-23 09:32:00,
2013-03-23 04:42:00,34.2,26.4,30.04,NNE,26,4.0,6.0,73,0.00,,,0.00,Wunderground v.1.15,2013-03-23 09:42:00,
2013-03-23 04:52:00,34.3,26.2,30.05,NNE,31,3.0,4.0,72,0.00,,,0.00,Wunderground v.1.15,2013-03-23 09:52:00,
2013-03-23 05:02:00,34.4,26.0,30.03,ENE,68,4.0,9.0,71,0.00,,,0.00,Wunderground v.1.15,2013-03-23 10:02:00,
2013-03-23 05:12:00,34.4,25.6,30.03,ENE,74,4.0,4.0,70,0.00,,,0.00,Wunderground v.1.15,2013-03-23 10:12:00,
2013-03-23 05:22:00,34.4,25.3,30.02,ENE,75,4.0,5.0,69,0.00,,,0.00,Wunderground v.1.15,2013-03-23 10:22:00,
2013-03-23 05:32:00,34.5,25.0,30.03,ENE,70,4.0,4.0,68,0.00,,,0.00,Wunderground v.1.15,2013-03-23 10:32:00,
2013-03-23 05:42:00,34.7,24.9,30.04,ENE,78,3.0,3.0,67,0.00,,,0.00,Wunderground v.1.15,2013-03-23 10:42:00,
2013-03-23 05:52:00,34.8,25.0,30.05,ENE,65,2.0,2.0,67,0.00,,,0.00,Wunderground v.1.15,2013-03-23 10:52:00,
2013-03-23 06:02:00,34.8,25.3,30.05,ENE,65,3.0,9.0,68,0.00,,,0.00,Wunderground v.1.15,2013-03-23 11:02:00,
2013-03-23 06:12:00,34.6,25.5,30.05,ENE,65,2.0,2.0,69,0.00,,,0.00,Wunderground v.1.15,2013-03-23 11:12:00,
2013-03-23 06:22:00,34.5,25.4,30.05,East,80,2.0,2.0,69,0.00,,,0.00,Wunderground v.1.15,2013-03-23 11:22:00,
2013-03-23 06:32:00,34.4,25.6,30.05,ENE,78,2.0,2.0,70,0.00,,,0.00,Wunderground v.1.15,2013-03-23 11:32:00,
2013-03-23 06:42:00,34.4,25.6,30.05,ENE,78,2.0,4.0,70,0.00,,,0.00,Wunderground v.1.15,2013-03-23 11:42:00,
2013-03-23 06:52:00,34.4,25.6,30.04,ENE,61,2.0,2.0,70,0.00,,,0.00,Wunderground v.1.15,2013-03-23 11:52:00,
2013-03-23 07:02:00,34.4,26.0,30.05,ENE,69,3.0,8.0,71,0.00,,,0.00,Wunderground v.1.15,2013-03-23 12:02:00,
2013-03-23 07:12:00,34.4,26.0,30.05,ENE,74,1.0,1.0,71,0.00,,,0.00,Wunderground v.1.15,2013-03-23 12:12:00,
2013-03-23 07:22:00,34.4,26.0,30.05,ENE,74,2.0,3.0,71,0.00,,,0.00,Wunderground v.1.15,2013-03-23 12:22:00,
2013-03-23 07:32:00,34.4,26.3,30.06,NE,46,2.0,2.0,72,0.00,,,0.00,Wunderground v.1.15,2013-03-23 12:32:00,
2013-03-23 07:42:00,34.6,26.5,30.07,ENE,61,2.0,2.0,72,0.00,,,0.00,Wunderground v.1.15,2013-03-23 12:42:00,
2013-03-23 07:52:00,34.8,26.4,30.07,NE,36,3.0,3.0,71,0.00,,,0.00,Wunderground v.1.15,2013-03-23 12:52:00,
2013-03-23 08:02:00,35.0,26.5,30.08,NE,36,2.0,2.0,71,0.00,,,0.00,Wunderground v.1.15,2013-03-23 13:02:00,
2013-03-23 08:12:00,35.0,26.9,30.08,NE,36,1.0,1.0,72,0.00,,,0.00,Wunderground v.1.15,2013-03-23 13:12:00,
2013-03-23 08:22:00,36.2,27.0,30.08,NE,41,3.0,3.0,69,0.00,,,0.00,Wunderground v.1.15,2013-03-23 13:22:00,
2013-03-23 08:32:00,36.9,27.0,30.08,NE,46,3.0,3.0,67,0.00,,,0.00,Wunderground v.1.15,2013-03-23 13:32:00,
2013-03-23 08:42:00,37.8,27.5,30.08,NE,53,3.0,4.0,66,0.00,,,0.00,Wunderground v.1.15,2013-03-23 13:42:00,
2013-03-23 08:52:00,38.5,27.4,30.08,ENE,67,3.0,4.0,64,0.00,,,0.00,Wunderground v.1.15,2013-03-23 13:52:00,
2013-03-23 09:12:00,39.4,27.8,30.08,East,90,3.0,3.0,63,0.00,,,0.00,Wunderground v.1.15,2013-03-23 14:12:00,
2013-03-23 09:22:00,40.4,28.0,30.08,East,95,4.0,4.0,61,0.00,,,0.00,Wunderground v.1.15,2013-03-23 14:22:00,
2013-03-23 09:32:00,40.1,28.1,30.08,East,81,4.0,4.0,62,0.00,,,0.00,Wunderground v.1.15,2013-03-23 14:32:00,
2013-03-23 09:42:00,40.5,27.7,30.08,East,83,4.0,6.0,60,0.00,,,0.00,Wunderground v.1.15,2013-03-23 14:42:00,
2013-03-23 09:52:00,40.4,27.6,30.08,East,94,5.0,6.0,60,0.00,,,0.00,Wunderground v.1.15,2013-03-23 14:52:00,
2013-03-23 10:02:00,40.6,27.8,30.08,East,82,4.0,8.0,60,0.00,,,0.00,Wunderground v.1.15,2013-03-23 15:02:00,
2013-03-23 10:12:00,41.4,28.1,30.08,SE,136,4.0,4.0,59,0.00,,,0.00,Wunderground v.1.15,2013-03-23 15:12:00,
2013-03-23 10:22:00,41.7,28.4,30.08,ENE,68,5.0,7.0,59,0.00,,,0.00,Wunderground v.1.15,2013-03-23 15:22:00,
2013-03-23 10:32:00,42.4,28.7,30.08,NE,53,5.0,5.0,58,0.00,,,0.00,Wunderground v.1.15,2013-03-23 15:32:00,
2013-03-23 10:42:00,43.1,28.5,30.08,East,88,5.0,5.0,56,0.00,,,0.00,Wunderground v.1.15,2013-03-23 15:42:00,
2013-03-23 10:52:00,43.6,28.0,30.08,NE,40,5.0,5.0,54,0.00,,,0.00,Wunderground v.1.15,2013-03-23 15:52:00,
2013-03-23 11:02:00,43.9,29.2,30.07,NE,41,6.0,8.0,56,0.00,,,0.00,Wunderground v.1.15,2013-03-23 16:02:00,
2013-03-23 11:12:00,44.5,28.9,30.07,ENE,57,6.0,6.0,54,0.00,,,0.00,Wunderground v.1.15,2013-03-23 16:12:00,
2013-03-23 11:22:00,44.7,29.1,30.06,NE,55,6.0,7.0,54,0.00,,,0.00,Wunderground v.1.15,2013-03-23 16:22:00,
2013-03-23 11:32:00,45.3,28.7,30.06,NNW,338,8.0,9.0,52,0.00,,,0.00,Wunderground v.1.15,2013-03-23 16:32:00,
2013-03-23 11:42:00,45.4,28.8,30.06,ESE,108,7.0,7.0,52,0.00,,,0.00,Wunderground v.1.15,2013-03-23 16:42:00,
2013-03-23 11:52:00,45.8,29.6,30.06,East,96,5.0,8.0,53,0.00,,,0.00,Wunderground v.1.15,2013-03-23 16:52:00,
2013-03-23 12:02:00,45.9,27.8,30.06,NNE,25,6.0,12.0,49,0.00,,,0.00,Wunderground v.1.15,2013-03-23 17:02:00,
2013-03-23 12:12:00,46.1,28.5,30.06,NE,47,5.0,5.0,50,0.00,,,0.00,Wunderground v.1.15,2013-03-23 17:12:00,
2013-03-23 12:22:00,46.4,27.8,30.06,ESE,104,5.0,5.0,48,0.00,,,0.00,Wunderground v.1.15,2013-03-23 17:22:00,
2013-03-23 12:32:00,47.3,28.6,30.06,NNE,22,5.0,5.0,48,0.00,,,0.00,Wunderground v.1.15,2013-03-23 17:32:00,
2013-03-23 12:42:00,46.8,28.1,30.06,SE,142,6.0,6.0,48,0.00,,,0.00,Wunderground v.1.15,2013-03-23 17:42:00,
2013-03-23 12:52:00,47.4,28.7,30.05,ENE,70,5.0,5.0,48,0.00,,,0.00,Wunderground v.1.15,2013-03-23 17:52:00,
2013-03-23 13:02:00,47.5,28.8,30.05,NE,45,6.0,6.0,48,0.00,,,0.00,Wunderground v.1.15,2013-03-23 18:02:00,
2013-03-23 13:12:00,47.5,29.3,30.05,SE,145,5.0,7.0,49,0.00,,,0.00,Wunderground v.1.15,2013-03-23 18:12:00,
2013-03-23 13:22:00,47.6,29.4,30.05,NE,51,4.0,7.0,49,0.00,,,0.00,Wunderground v.1.15,2013-03-23 18:22:00,
2013-03-23 13:32:00,47.6,28.9,30.05,NE,46,3.0,3.0,48,0.00,,,0.00,Wunderground v.1.15,2013-03-23 18:32:00,
2013-03-23 13:42:00,48.6,28.7,30.04,South,175,4.0,4.0,46,0.00,,,0.00,Wunderground v.1.15,2013-03-23 18:42:00,
2013-03-23 13:52:00,48.8,28.9,30.05,ENE,77,3.0,5.0,46,0.00,,,0.00,Wunderground v.1.15,2013-03-23 18:52:00,
2013-03-23 14:02:00,48.6,28.7,30.05,ESE,116,4.0,4.0,46,0.00,,,0.00,Wunderground v.1.15,2013-03-23 19:02:00,
2013-03-23 14:12:00,48.6,29.3,30.04,NNE,17,4.0,4.0,47,0.00,,,0.00,Wunderground v.1.15,2013-03-23 19:12:00,
2013-03-23 14:22:00,49.3,28.3,30.04,East,98,3.0,3.0,44,0.00,,,0.00,Wunderground v.1.15,2013-03-23 19:22:00,
2013-03-23 14:32:00,49.2,29.3,30.03,East,88,3.0,6.0,46,0.00,,,0.00,Wunderground v.1.15,2013-03-23 19:32:00,
2013-03-23 14:42:00,49.6,31.2,30.02,NNE,30,5.0,7.0,49,0.00,,,0.00,Wunderground v.1.15,2013-03-23 19:42:00,
2013-03-23 14:52:00,50.1,30.1,30.01,NE,51,6.0,7.0,46,0.00,,,0.00,Wunderground v.1.15,2013-03-23 19:52:00,
2013-03-23 15:02:00,50.2,30.2,30.00,NE,43,5.0,5.0,46,0.00,,,0.00,Wunderground v.1.15,2013-03-23 20:02:00,
2013-03-23 15:12:00,50.3,29.7,29.99,ENE,61,7.0,11.0,45,0.00,,,0.00,Wunderground v.1.15,2013-03-23 20:12:00,
2013-03-23 15:22:00,50.4,30.4,29.99,NE,52,7.0,10.0,46,0.00,,,0.00,Wunderground v.1.15,2013-03-23 20:22:00,
2013-03-23 15:32:00,50.5,31.0,29.98,ENE,57,7.0,7.0,47,0.00,,,0.00,Wunderground v.1.15,2013-03-23 20:32:00,
2013-03-23 15:42:00,50.6,31.1,29.97,NE,36,6.0,6.0,47,0.00,,,0.00,Wunderground v.1.15,2013-03-23 20:42:00,
2013-03-23 16:02:00,50.7,31.7,29.97,ENE,57,7.0,7.0,48,0.00,,,0.00,Wunderground v.1.15,2013-03-23 21:02:00,
2013-03-23 16:12:00,50.5,32.0,29.96,North,9,8.0,11.0,49,0.00,,,0.00,Wunderground v.1.15,2013-03-23 21:12:00,
2013-03-23 16:22:00,49.9,31.0,29.96,NE,47,8.0,8.0,48,0.00,,,0.00,Wunderground v.1.15,2013-03-23 21:22:00,
2013-03-23 16:32:00,49.9,31.5,29.96,ENE,59,8.0,8.0,49,0.00,,,0.00,Wunderground v.1.15,2013-03-23 21:32:00,
2013-03-23 16:42:00,49.3,30.9,29.95,NE,56,6.0,8.0,49,0.00,,,0.00,Wunderground v.1.15,2013-03-23 21:42:00,
2013-03-23 16:52:00,49.5,32.1,29.95,ENE,68,8.0,8.0,51,0.00,,,0.00,Wunderground v.1.15,2013-03-23 21:52:00,
2013-03-23 17:02:00,49.3,30.9,29.95,NNE,28,8.0,8.0,49,0.00,,,0.00,Wunderground v.1.15,2013-03-23 22:02:00,
2013-03-23 17:12:00,49.0,30.7,29.95,NNE,15,8.0,8.0,49,0.00,,,0.00,Wunderground v.1.15,2013-03-23 22:12:00,
2013-03-23 17:22:00,48.6,30.8,29.94,East,92,8.0,9.0,50,0.00,,,0.00,Wunderground v.1.15,2013-03-23 22:22:00,
2013-03-23 17:32:00,48.3,30.5,29.94,ENE,60,8.0,8.0,50,0.00,,,0.00,Wunderground v.1.15,2013-03-23 22:32:00,
2013-03-23 17:42:00,48.0,30.7,29.94,NE,54,8.0,12.0,51,0.00,,,0.00,Wunderground v.1.15,2013-03-23 22:42:00,
2013-03-23 17:52:00,47.7,30.9,29.95,ENE,70,7.0,7.0,52,0.00,,,0.00,Wunderground v.1.15,2013-03-23 22:52:00,
2013-03-23 18:02:00,47.3,30.5,29.95,NE,42,7.0,7.0,52,0.00,,,0.00,Wunderground v.1.15,2013-03-23 23:02:00,
2013-03-23 18:12:00,46.9,30.6,29.94,NE,49,6.0,8.0,53,0.00,,,0.00,Wunderground v.1.15,2013-03-23 23:12:00,
2013-03-23 18:22:00,46.2,30.5,29.94,NE,46,7.0,7.0,54,0.00,,,0.00,Wunderground v.1.15,2013-03-23 23:22:00,
2013-03-23 18:32:00,45.6,29.9,29.94,NE,50,8.0,8.0,54,0.00,,,0.00,Wunderground v.1.15,2013-03-23 23:32:00,
2013-03-23 18:42:00,45.0,29.8,29.94,NE,36,7.0,7.0,55,0.00,,,0.00,Wunderground v.1.15,2013-03-23 23:42:00,
2013-03-23 18:52:00,44.3,29.6,29.95,NE,49,5.0,5.0,56,0.00,,,0.00,Wunderground v.1.15,2013-03-23 23:52:00,
2013-03-23 19:02:00,43.9,29.2,29.94,NE,53,6.0,18.0,56,0.00,,,0.00,Wunderground v.1.15,2013-03-24 00:02:00,
2013-03-23 19:12:00,43.6,29.4,29.95,ENE,61,5.0,5.0,57,0.00,,,0.00,Wunderground v.1.15,2013-03-24 00:12:00,
2013-03-23 19:22:00,43.2,29.0,29.95,ENE,66,4.0,7.0,57,0.00,,,0.00,Wunderground v.1.15,2013-03-24 00:22:00,
2013-03-23 19:32:00,42.9,29.1,29.95,NE,52,5.0,5.0,58,0.00,,,0.00,Wunderground v.1.15,2013-03-24 00:32:00,
2013-03-23 19:42:00,42.8,29.0,29.95,NE,51,4.0,4.0,58,0.00,,,0.00,Wunderground v.1.15,2013-03-24 00:42:00,
2013-03-23 20:02:00,42.3,29.4,29.94,ENE,64,5.0,12.0,60,0.00,,,0.00,Wunderground v.1.15,2013-03-24 01:02:00,
2013-03-23 20:12:00,42.2,29.7,29.94,NE,34,5.0,5.0,61,0.00,,,0.00,Wunderground v.1.15,2013-03-24 01:12:00,
2013-03-23 20:22:00,41.9,29.8,29.95,NE,44,5.0,6.0,62,0.00,,,0.00,Wunderground v.1.15,2013-03-24 01:22:00,
2013-03-23 20:32:00,41.7,30.0,29.95,NNE,32,5.0,5.0,63,0.00,,,0.00,Wunderground v.1.15,2013-03-24 01:32:00,
2013-03-23 20:42:00,41.6,29.9,29.95,ENE,76,6.0,6.0,63,0.00,,,0.00,Wunderground v.1.15,2013-03-24 01:42:00,
2013-03-23 20:52:00,41.6,29.9,29.96,NE,43,5.0,5.0,63,0.00,,,0.00,Wunderground v.1.15,2013-03-24 01:52:00,
2013-03-23 21:02:00,41.5,29.8,29.96,NE,44,4.0,9.0,63,0.00,,,0.00,Wunderground v.1.15,2013-03-24 02:02:00,
2013-03-23 21:12:00,41.4,30.1,29.96,NE,44,4.0,4.0,64,0.00,,,0.00,Wunderground v.1.15,2013-03-24 02:12:00,
2013-03-23 21:22:00,41.4,30.1,29.95,NNE,17,4.0,4.0,64,0.00,,,0.00,Wunderground v.1.15,2013-03-24 02:22:00,
2013-03-23 21:32:00,41.4,29.7,29.96,NE,46,5.0,5.0,63,0.00,,,0.00,Wunderground v.1.15,2013-03-24 02:32:00,
2013-03-23 21:42:00,41.3,30.0,29.95,ENE,61,8.0,13.0,64,0.00,,,0.00,Wunderground v.1.15,2013-03-24 02:42:00,
2013-03-23 21:52:00,40.7,29.8,29.96,NE,55,8.0,8.0,65,0.00,,,0.00,Wunderground v.1.15,2013-03-24 02:52:00,
2013-03-23 22:02:00,40.0,29.6,29.96,ENE,59,7.0,10.0,66,0.00,,,0.00,Wunderground v.1.15,2013-03-24 03:02:00,
2013-03-23 22:12:00,39.4,29.0,29.96,NE,46,8.0,12.0,66,0.00,,,0.00,Wunderground v.1.15,2013-03-24 03:12:00,
2013-03-23 22:22:00,38.9,28.9,29.96,ENE,63,7.0,9.0,67,0.00,,,0.00,Wunderground v.1.15,2013-03-24 03:22:00,
2013-03-23 22:32:00,38.3,28.7,29.97,ENE,72,8.0,10.0,68,0.00,,,0.00,Wunderground v.1.15,2013-03-24 03:32:00,
2013-03-23 22:42:00,38.0,29.1,29.96,ENE,57,8.0,8.0,70,0.00,,,0.00,Wunderground v.1.15,2013-03-24 03:42:00,
2013-03-23 22:52:00,37.2,28.7,29.95,NE,51,10.0,10.0,71,0.00,,,0.00,Wunderground v.1.15,2013-03-24 03:52:00,
2013-03-23 23:02:00,36.6,28.4,29.95,NE,53,9.0,16.0,72,0.00,,,0.00,Wunderground v.1.15,2013-03-24 04:02:00,
2013-03-23 23:12:00,36.1,27.9,29.96,ENE,63,9.0,9.0,72,0.00,,,0.00,Wunderground v.1.15,2013-03-24 04:12:00,
2013-03-23 23:22:00,35.6,27.5,29.96,ENE,64,8.0,8.0,72,0.00,,,0.00,Wunderground v.1.15,2013-03-24 04:22:00,
2013-03-23 23:32:00,35.4,27.3,29.97,NE,54,8.0,8.0,72,0.00,,,0.00,Wunderground v.1.15,2013-03-24 04:32:00,
2013-03-23 23:42:00,35.2,27.1,29.97,NE,36,7.0,12.0,72,0.00,,,0.00,Wunderground v.1.15,2013-03-24 04:42:00,
2013-03-23 23:52:00,35.0,26.9,29.97,NE,54,8.0,8.0,72,0.00,,,0.00,Wunderground v.1.15,2013-03-24 04:52:00,